Connexion S'enregistrer

Connexion à votre compte

Identifiant
Mot de passe
Maintenir la connexion active sur ce site

Créer un compte

Pour valider ce formulaire, vous devez remplir tous les champs.
Nom
Identifiant
Mot de passe
Répétez le mot de passe
Adresse e-mail
Répétez l'adresse e-mail

Veuillez saisir l'adresse e-mail associée à votre compte d'utilisateur. Votre identifiant vous sera envoyé à cette adresse.

Nous contacter

 Téléphone : +33 (0)4 79 54 41 81

Coordonnées détaillées et accès : cliquez ici

 
LFLB °C
    Ferienhaus Ostsee
[source: ADDS]
METAR
LFLB 112030Z AUTO 02006KT 350V080 CAVOK 03/M01 Q1022 NOSIG =
TAF LFLB 111700Z 1118/1218 36008KT CAVOK PROB40 TEMPO 1203/1209 4000 BR BKN005
TAF
TAF LFLB 111700Z 1118/1218 36008KT CAVOK PROB40 TEMPO 1203/1209 4000 BR BKN005 =
SR / SS: 07:06 / 15:52 UTC (Lever/Coucher du soleil le 2018-12-11)
JSN Boot template designed by JoomlaShine.com